createdAt,value
2024-02-19T00:00:33.401Z,99914.22
2024-02-19T00:03:04.145Z,99902.41
2024-02-19T00:05:31.545Z,99908.16
2024-02-19T00:07:58.705Z,99912.44
2024-02-19T00:10:27.484Z,99918.22
2024-02-19T00:12:54.533Z,99909.91
2024-02-19T00:15:21.501Z,99909.91
2024-02-19T00:17:48.717Z,99915.00
2024-02-19T00:20:16.096Z,99919.34
2024-02-19T00:22:43.130Z,99911.81
2024-02-19T00:25:10.381Z,99911.03
2024-02-19T00:27:38.976Z,99913.56
2024-02-19T00:30:07.359Z,99921.25
2024-02-19T00:32:35.267Z,99918.84
2024-02-19T00:35:02.460Z,99918.38
2024-02-19T00:37:29.417Z,99915.00
2024-02-19T00:39:56.479Z,99911.47
2024-02-19T00:42:23.506Z,99903.81
2024-02-19T00:44:51.908Z,99893.94
2024-02-19T00:47:18.935Z,99902.22
2024-02-19T00:49:46.010Z,99887.81
2024-02-19T00:52:13.294Z,99894.22
2024-02-19T00:54:40.447Z,99900.13
2024-02-19T00:57:07.654Z,99892.63
2024-02-19T00:59:34.608Z,99879.06
2024-02-19T01:02:04.329Z,99880.63
2024-02-19T01:04:31.440Z,99880.78
2024-02-19T01:06:58.429Z,99880.13
2024-02-19T01:09:25.436Z,99876.97
2024-02-19T01:11:52.439Z,99876.16
2024-02-19T01:14:19.454Z,99872.81
2024-02-19T01:16:47.825Z,99866.09
2024-02-19T01:19:16.549Z,99860.19
2024-02-19T01:21:44.291Z,99856.97
2024-02-19T01:24:11.394Z,99849.47
2024-02-19T01:26:38.407Z,99847.88
2024-02-19T01:29:05.576Z,99845.78
2024-02-19T01:31:33.068Z,99841.75
2024-02-19T01:34:00.095Z,99855.66
2024-02-19T01:36:28.550Z,99850.69
2024-02-19T01:38:55.557Z,99844.94
2024-02-19T01:41:22.662Z,99836.31
2024-02-19T01:43:49.633Z,99833.13
2024-02-19T01:46:17.138Z,99829.75
2024-02-19T01:48:47.139Z,99831.69
2024-02-19T01:51:16.499Z,99831.69
2024-02-19T01:53:45.616Z,99824.94
2024-02-19T01:56:12.734Z,99819.06
2024-02-19T01:58:39.877Z,99825.75
2024-02-19T02:01:07.779Z,99813.28
2024-02-19T02:03:36.433Z,99821.63
2024-02-19T02:06:03.666Z,99814.25
2024-02-19T02:08:30.928Z,99809.16
2024-02-19T02:10:59.560Z,99806.59
2024-02-19T02:13:26.685Z,99808.34
2024-02-19T02:15:53.795Z,99812.63
2024-02-19T02:18:21.168Z,99816.16
2024-02-19T02:20:48.946Z,99810.44
2024-02-19T02:23:16.938Z,99816.47
2024-02-19T02:25:44.020Z,99815.03
2024-02-19T02:28:12.498Z,99816.97
2024-02-19T02:30:39.785Z,99814.56
2024-02-19T02:33:07.024Z,99817.41
2024-02-19T02:35:35.177Z,99806.53
2024-02-19T02:38:02.196Z,99810.38
2024-02-19T02:40:29.286Z,99794.38
2024-02-19T02:42:56.477Z,99785.06
2024-02-19T02:45:25.437Z,99784.88
2024-02-19T02:47:52.639Z,99776.69
2024-02-19T02:50:19.732Z,99769.81
2024-02-19T02:52:46.838Z,99773.75
2024-02-19T02:55:14.239Z,99775.72
2024-02-19T02:57:41.354Z,99774.94
2024-02-19T03:00:09.985Z,99773.53
2024-02-19T03:02:38.509Z,99782.34
2024-02-19T03:05:06.020Z,99768.59
2024-02-19T03:07:33.638Z,99769.91
2024-02-19T03:10:00.720Z,99773.25
2024-02-19T03:12:27.902Z,99768.78
2024-02-19T03:14:55.619Z,99772.94
2024-02-19T03:17:22.618Z,99761.63
2024-02-19T03:19:51.650Z,99767.53
2024-02-19T03:22:18.742Z,99771.66
2024-02-19T03:24:46.182Z,99768.47
2024-02-19T03:27:13.738Z,99767.81
2024-02-19T03:29:40.733Z,99777.38
2024-02-19T03:32:08.242Z,99784.53
2024-02-19T03:34:35.286Z,99772.22
2024-02-19T03:37:04.063Z,99774.31
2024-02-19T03:39:31.042Z,99772.72
2024-02-19T03:41:58.159Z,99767.09
2024-02-19T03:44:25.167Z,99757.03
2024-02-19T03:46:52.169Z,99756.41
2024-02-19T03:49:19.379Z,99757.34
2024-02-19T03:51:46.489Z,99759.41
2024-02-19T03:54:15.029Z,99764.81
2024-02-19T03:56:42.325Z,99759.22
2024-02-19T03:59:09.547Z,99752.97
2024-02-19T04:01:38.927Z,99748.16
2024-02-19T04:04:06.265Z,99753.53
2024-02-19T04:06:33.374Z,99757.84
2024-02-19T04:09:00.386Z,99754.34
2024-02-19T04:11:28.846Z,99756.09
2024-02-19T04:13:55.932Z,99748.56
2024-02-19T04:16:23.051Z,99757.19
2024-02-19T04:18:50.409Z,99762.28
2024-02-19T04:21:17.621Z,99761.34
2024-02-19T04:23:45.274Z,99759.75
2024-02-19T04:26:12.268Z,99757.34
2024-02-19T04:28:40.655Z,99762.44
2024-02-19T04:31:07.756Z,99768.50
2024-02-19T04:33:34.946Z,99767.06
2024-02-19T04:36:02.027Z,99760.34
2024-02-19T04:38:29.160Z,99754.47
2024-02-19T04:40:56.592Z,99761.75
2024-02-19T04:43:24.169Z,99772.53
2024-02-19T04:45:52.723Z,99763.28
2024-02-19T04:48:19.791Z,99762.34
2024-02-19T04:50:46.845Z,99753.75
2024-02-19T04:53:19.330Z,99760.44
2024-02-19T04:55:46.861Z,99754.25
2024-02-19T04:58:13.913Z,99758.56
2024-02-19T05:00:42.366Z,99762.69
2024-02-19T05:03:11.691Z,99762.03
2024-02-19T05:05:39.749Z,99763.00
2024-02-19T05:08:07.367Z,99766.34
2024-02-19T05:10:34.402Z,99763.00
2024-02-19T05:13:01.982Z,99768.91
2024-02-19T05:15:29.022Z,99779.75
2024-02-19T05:17:56.358Z,99776.22
2024-02-19T05:20:27.505Z,99778.78
2024-02-19T05:22:55.025Z,99783.72
2024-02-19T05:25:22.124Z,99780.09
2024-02-19T05:27:49.266Z,99778.03
2024-02-19T05:30:17.516Z,99786.34
2024-02-19T05:32:44.739Z,99788.94
2024-02-19T05:35:11.739Z,99791.84
2024-02-19T05:37:40.205Z,99786.91
2024-02-19T05:40:08.769Z,99786.09
2024-02-19T05:42:35.827Z,99786.25
2024-02-19T05:45:02.875Z,99794.03
2024-02-19T05:47:30.085Z,99788.13
2024-02-19T05:49:57.198Z,99793.41
2024-02-19T05:52:24.334Z,99790.19
2024-02-19T05:54:53.656Z,99801.06
2024-02-19T05:57:20.754Z,99800.25
2024-02-19T05:59:47.737Z,99789.25
2024-02-19T06:02:14.986Z,99784.00
2024-02-19T06:04:42.248Z,99789.25
2024-02-19T06:07:09.410Z,99786.06
2024-02-19T06:09:36.508Z,99788.59
2024-02-19T06:12:06.073Z,99797.56
2024-02-19T06:14:33.461Z,99789.75
2024-02-19T06:17:00.709Z,99796.97
2024-02-19T06:19:27.762Z,99788.84
2024-02-19T06:21:54.800Z,99789.34
2024-02-19T06:24:21.931Z,99789.69
2024-02-19T06:26:49.074Z,99788.41
2024-02-19T06:29:17.437Z,99797.53
2024-02-19T06:31:47.268Z,99789.09
2024-02-19T06:34:14.462Z,99788.50
2024-02-19T06:36:41.652Z,99793.16
2024-02-19T06:39:09.344Z,99789.19
2024-02-19T06:41:36.411Z,99794.66
2024-02-19T06:44:03.479Z,99787.00
2024-02-19T06:46:31.940Z,99794.06
2024-02-19T06:49:01.323Z,99791.16
2024-02-19T06:51:28.942Z,99799.00
2024-02-19T06:53:55.924Z,99783.19
2024-02-19T06:56:23.300Z,99792.50
2024-02-19T06:58:50.297Z,99786.41
2024-02-19T07:01:17.784Z,99792.19
2024-02-19T07:03:46.686Z,99788.53
2024-02-19T07:06:17.010Z,99790.81
2024-02-19T07:08:44.279Z,99782.84
2024-02-19T07:11:11.353Z,99780.94
2024-02-19T07:13:41.478Z,99780.44
2024-02-19T07:16:08.931Z,99775.03
2024-02-19T07:18:36.162Z,99772.31
2024-02-19T07:21:05.214Z,99757.28
2024-02-19T07:23:32.272Z,99773.41
2024-02-19T07:25:59.452Z,99762.38
2024-02-19T07:28:27.662Z,99761.44
2024-02-19T07:30:54.787Z,99755.78
2024-02-19T07:33:22.904Z,99755.16
2024-02-19T07:35:50.621Z,99759.16
2024-02-19T07:38:19.277Z,99759.16
2024-02-19T07:40:46.672Z,99759.31
2024-02-19T07:43:16.837Z,99764.59
2024-02-19T07:45:43.959Z,99763.16
2024-02-19T07:48:12.545Z,99760.44
2024-02-19T07:50:39.953Z,99757.34
2024-02-19T07:53:06.969Z,99760.44
2024-02-19T07:55:39.185Z,99754.19
2024-02-19T07:58:06.294Z,99753.69
2024-02-19T08:00:33.501Z,99743.94
2024-02-19T08:03:00.712Z,99744.44
2024-02-19T08:05:27.729Z,99743.00
2024-02-19T08:07:55.131Z,99743.63
2024-02-19T08:10:22.158Z,99757.72
2024-02-19T08:12:50.857Z,99742.00
2024-02-19T08:15:18.011Z,99744.47
2024-02-19T08:17:46.345Z,99745.31
2024-02-19T08:20:13.437Z,99739.34
2024-02-19T08:22:41.951Z,99734.06
2024-02-19T08:25:11.274Z,99739.81
2024-02-19T08:27:38.572Z,99732.75
2024-02-19T08:30:08.426Z,99727.28
2024-02-19T08:32:35.489Z,99726.84
2024-02-19T08:35:02.881Z,99727.03
2024-02-19T08:37:30.706Z,99716.00
2024-02-19T08:39:57.902Z,99717.84
2024-02-19T08:42:25.031Z,99715.97
2024-02-19T08:44:52.000Z,99723.75
2024-02-19T08:47:20.639Z,99714.78
2024-02-19T08:49:47.852Z,99719.53
2024-02-19T08:52:15.515Z,99715.69
2024-02-19T08:54:42.718Z,99715.00
2024-02-19T08:57:10.041Z,99720.03
2024-02-19T08:59:38.888Z,99722.28
2024-02-19T09:02:06.193Z,99713.44
2024-02-19T09:04:35.492Z,99719.81
2024-02-19T09:07:02.745Z,99714.72
2024-02-19T09:09:30.600Z,99715.47
2024-02-19T09:11:57.626Z,99720.34
2024-02-19T09:14:27.949Z,99718.31
2024-02-19T09:16:57.656Z,99717.19
2024-02-19T09:19:24.972Z,99719.31
2024-02-19T09:21:53.456Z,99719.13
2024-02-19T09:24:20.551Z,99713.72
2024-02-19T09:26:47.509Z,99719.38
2024-02-19T09:29:16.617Z,99709.34
2024-02-19T09:31:44.287Z,99713.16
2024-02-19T09:34:11.364Z,99710.31
2024-02-19T09:36:38.420Z,99710.69
2024-02-19T09:39:07.482Z,99701.16
2024-02-19T09:41:34.795Z,99701.56
2024-02-19T09:44:01.796Z,99696.53
2024-02-19T09:46:28.793Z,99700.13
2024-02-19T09:48:58.962Z,99680.31
2024-02-19T09:51:33.295Z,99693.41
2024-02-19T09:54:06.837Z,99688.94
2024-02-19T09:56:35.383Z,99684.81
2024-02-19T09:59:02.446Z,99684.63
2024-02-19T10:01:29.725Z,99683.09
2024-02-19T10:03:57.940Z,99672.59
2024-02-19T10:06:33.761Z,99666.47
2024-02-19T10:09:08.027Z,99665.94
2024-02-19T10:11:37.093Z,99665.75
2024-02-19T10:14:04.926Z,99656.25
2024-02-19T10:16:32.296Z,99654.53
2024-02-19T10:19:06.339Z,99660.97
2024-02-19T10:21:34.406Z,99653.13
2024-02-19T10:24:01.690Z,99643.63
2024-02-19T10:26:28.846Z,99640.25
2024-02-19T10:28:58.721Z,99635.38
2024-02-19T10:31:27.423Z,99635.38
2024-02-19T10:33:54.737Z,99632.47
2024-02-19T10:36:23.803Z,99636.41
2024-02-19T10:38:51.270Z,99629.50
2024-02-19T10:41:19.133Z,99634.16
2024-02-19T10:43:46.427Z,99618.19
2024-02-19T10:46:21.121Z,99621.25
2024-02-19T10:48:49.170Z,99608.66
2024-02-19T10:51:19.025Z,99602.22
2024-02-19T10:53:46.621Z,99597.88
2024-02-19T10:56:17.429Z,99599.94
2024-02-19T10:58:54.727Z,99590.59
2024-02-19T11:01:24.701Z,99584.84
2024-02-19T11:03:52.362Z,99580.53
2024-02-19T11:06:24.995Z,99578.94
2024-02-19T11:08:56.012Z,99574.75
2024-02-19T11:11:23.864Z,99575.78
2024-02-19T11:13:51.195Z,99568.66
2024-02-19T11:16:19.434Z,99562.28
2024-02-19T11:18:51.261Z,99559.50
2024-02-19T11:21:19.633Z,99572.38
2024-02-19T11:23:46.726Z,99556.31
2024-02-19T11:26:14.129Z,99554.34
2024-02-19T11:28:41.379Z,99557.72
2024-02-19T11:31:10.676Z,99544.63
2024-02-19T11:33:38.091Z,99547.13
2024-02-19T11:36:08.594Z,99538.28
2024-02-19T11:38:36.129Z,99539.03
2024-02-19T11:41:05.023Z,99543.59
2024-02-19T11:43:32.470Z,99537.66
2024-02-19T11:46:00.227Z,99540.09
2024-02-19T11:48:27.513Z,99524.44
2024-02-19T11:50:54.719Z,99520.84
2024-02-19T11:53:24.220Z,99524.31
2024-02-19T11:56:02.115Z,99518.22
2024-02-19T11:58:29.833Z,99517.59
2024-02-19T12:01:00.386Z,99513.47
2024-02-19T12:03:28.907Z,99512.47
2024-02-19T12:06:01.811Z,99513.09
2024-02-19T12:08:31.656Z,99509.13
2024-02-19T12:10:59.674Z,99502.75
2024-02-19T12:13:27.425Z,99504.13
2024-02-19T12:15:54.526Z,99503.56
2024-02-19T12:18:21.937Z,99497.22
2024-02-19T12:20:49.648Z,99484.91
2024-02-19T12:23:16.899Z,99487.09
2024-02-19T12:25:45.472Z,99491.84
2024-02-19T12:28:12.576Z,99484.91
2024-02-19T12:30:39.589Z,99484.50
2024-02-19T12:33:08.510Z,99481.56
2024-02-19T12:35:37.739Z,99490.13
2024-02-19T12:38:06.831Z,99480.97
2024-02-19T12:40:34.062Z,99475.03
2024-02-19T12:43:03.537Z,99480.78
2024-02-19T12:45:30.591Z,99475.03
2024-02-19T12:47:57.761Z,99482.34
2024-02-19T12:50:25.195Z,99480.19
2024-02-19T12:52:52.857Z,99467.28
2024-02-19T12:55:20.096Z,99467.28
2024-02-19T12:57:47.563Z,99463.53
2024-02-19T13:00:16.581Z,99454.59
2024-02-19T13:02:43.822Z,99468.50
2024-02-19T13:05:11.023Z,99463.34
2024-02-19T13:07:38.217Z,99464.34
2024-02-19T13:10:06.421Z,99463.53
2024-02-19T13:12:33.532Z,99449.28
2024-02-19T13:15:01.946Z,99444.28
2024-02-19T13:17:39.725Z,99455.81
2024-02-19T13:20:11.656Z,99448.50
2024-02-19T13:22:39.209Z,99448.47
2024-02-19T13:25:08.281Z,99442.53
2024-02-19T13:27:35.397Z,99436.97
2024-02-19T13:30:02.778Z,99434.75
2024-02-19T13:32:31.791Z,99431.97
2024-02-19T13:34:59.366Z,99433.72
2024-02-19T13:37:27.274Z,99429.38
2024-02-19T13:39:55.245Z,99433.56
2024-02-19T13:42:22.394Z,99437.38
2024-02-19T13:44:49.614Z,99441.13
2024-02-19T13:47:16.822Z,99434.97
2024-02-19T13:49:46.985Z,99434.34
2024-02-19T13:52:14.308Z,99430.16
2024-02-19T13:54:41.403Z,99435.69
2024-02-19T13:57:09.148Z,99431.16
2024-02-19T13:59:36.200Z,99436.88
2024-02-19T14:02:03.234Z,99438.03
2024-02-19T14:04:30.446Z,99433.69
2024-02-19T14:06:59.343Z,99440.03
2024-02-19T14:09:26.590Z,99432.50
2024-02-19T14:11:54.296Z,99439.03
2024-02-19T14:14:21.431Z,99440.56
2024-02-19T14:16:48.558Z,99441.91
2024-02-19T14:19:16.294Z,99444.31
2024-02-19T14:21:43.495Z,99446.06
2024-02-19T14:24:11.917Z,99435.56
2024-02-19T14:26:38.908Z,99435.72
2024-02-19T14:29:09.247Z,99435.28
2024-02-19T14:31:36.604Z,99442.16
2024-02-19T14:34:04.993Z,99432.84
2024-02-19T14:36:32.174Z,99438.94
2024-02-19T14:38:59.218Z,99428.47
2024-02-19T14:41:27.572Z,99433.34
2024-02-19T14:43:55.691Z,99423.06
2024-02-19T14:46:23.095Z,99426.97
2024-02-19T14:48:50.502Z,99422.19
2024-02-19T14:51:20.488Z,99422.91
2024-02-19T14:53:51.915Z,99420.28
2024-02-19T14:56:19.250Z,99425.19
2024-02-19T14:58:47.640Z,99428.75
2024-02-19T15:01:14.943Z,99435.47
2024-02-19T15:03:42.066Z,99434.09
2024-02-19T15:06:09.291Z,99431.97
2024-02-19T15:08:36.789Z,99430.78
2024-02-19T15:11:05.127Z,99426.09
2024-02-19T15:13:32.196Z,99437.47
2024-02-19T15:16:00.700Z,99428.13
2024-02-19T15:18:28.157Z,99433.88
2024-02-19T15:20:55.265Z,99429.72
2024-02-19T15:23:22.332Z,99435.25
2024-02-19T15:25:52.788Z,99430.47
2024-02-19T15:28:20.069Z,99432.84
2024-02-19T15:30:47.458Z,99430.84
2024-02-19T15:33:15.941Z,99431.41
2024-02-19T15:35:43.286Z,99427.44
2024-02-19T15:38:13.292Z,99439.06
2024-02-19T15:40:40.757Z,99428.13
2024-02-19T15:43:08.136Z,99432.44
2024-02-19T15:45:36.828Z,99428.91
2024-02-19T15:48:04.251Z,99434.03
2024-02-19T15:50:33.686Z,99427.75
2024-02-19T15:53:06.251Z,99430.13
2024-02-19T15:55:34.346Z,99426.16
2024-02-19T15:58:01.552Z,99424.56
2024-02-19T16:00:28.578Z,99431.28
2024-02-19T16:02:55.583Z,99435.66
2024-02-19T16:05:22.646Z,99428.31
2024-02-19T16:07:51.244Z,99438.94
2024-02-19T16:10:18.543Z,99432.59
2024-02-19T16:12:46.266Z,99438.28
2024-02-19T16:15:13.478Z,99433.28
2024-02-19T16:17:41.172Z,99436.94
2024-02-19T16:20:09.326Z,99434.31
2024-02-19T16:22:36.828Z,99435.38
2024-02-19T16:25:08.505Z,99428.94
2024-02-19T16:27:36.847Z,99436.59
2024-02-19T16:30:06.495Z,99439.88
2024-02-19T16:32:35.341Z,99452.81
2024-02-19T16:35:02.628Z,99456.72
2024-02-19T16:37:29.984Z,99441.41
2024-02-19T16:39:57.014Z,99456.72
2024-02-19T16:42:25.418Z,99448.97
2024-02-19T16:44:52.837Z,99454.78
2024-02-19T16:47:19.803Z,99451.13
2024-02-19T16:49:47.386Z,99455.22
2024-02-19T16:52:15.160Z,99454.56
2024-02-19T16:54:42.199Z,99453.59
2024-02-19T16:57:09.157Z,99458.53
2024-02-19T16:59:38.058Z,99461.91
2024-02-19T17:02:05.335Z,99465.09
2024-02-19T17:04:32.604Z,99452.28
2024-02-19T17:06:59.916Z,99458.38
2024-02-19T17:09:27.047Z,99464.13
2024-02-19T17:11:54.636Z,99469.25
2024-02-19T17:14:21.767Z,99467.28
2024-02-19T17:16:53.836Z,99473.41
2024-02-19T17:19:21.548Z,99470.59
2024-02-19T17:21:48.755Z,99469.69
2024-02-19T17:24:15.858Z,99466.69
2024-02-19T17:26:44.491Z,99477.09
2024-02-19T17:29:11.873Z,99468.19
2024-02-19T17:31:40.449Z,99468.34
2024-02-19T17:34:09.283Z,99473.47
2024-02-19T17:36:36.357Z,99477.03
2024-02-19T17:39:07.776Z,99476.22
2024-02-19T17:41:35.057Z,99478.78
2024-02-19T17:44:02.436Z,99472.66
2024-02-19T17:46:29.797Z,99474.28
2024-02-19T17:48:57.096Z,99477.63
2024-02-19T17:51:29.747Z,99466.78
2024-02-19T17:53:59.044Z,99470.09
2024-02-19T17:56:29.690Z,99472.06
2024-02-19T17:58:57.161Z,99467.28
2024-02-19T18:01:26.945Z,99466.66
2024-02-19T18:03:54.568Z,99466.41
2024-02-19T18:06:22.081Z,99461.00
2024-02-19T18:08:52.244Z,99470.97
2024-02-19T18:11:19.542Z,99466.38
2024-02-19T18:13:46.944Z,99466.28
2024-02-19T18:16:14.170Z,99481.97
2024-02-19T18:18:43.287Z,99467.13
2024-02-19T18:21:10.716Z,99473.56
2024-02-19T18:23:37.952Z,99469.13
2024-02-19T18:26:07.105Z,99475.91
2024-02-19T18:28:36.187Z,99479.69
2024-02-19T18:31:05.514Z,99478.41
2024-02-19T18:33:32.864Z,99472.22
2024-02-19T18:36:00.051Z,99472.91
2024-02-19T18:38:27.413Z,99470.22
2024-02-19T18:40:56.115Z,99470.72
2024-02-19T18:43:26.856Z,99467.72
2024-02-19T18:45:54.463Z,99462.94
2024-02-19T18:48:22.583Z,99465.03
2024-02-19T18:50:49.709Z,99465.91
2024-02-19T18:53:16.967Z,99470.25
2024-02-19T18:55:44.988Z,99460.84
2024-02-19T18:58:11.980Z,99469.19
2024-02-19T19:00:40.690Z,99462.03
2024-02-19T19:03:08.064Z,99467.66
2024-02-19T19:05:35.704Z,99468.31
2024-02-19T19:08:03.292Z,99464.19
2024-02-19T19:10:30.372Z,99465.66
2024-02-19T19:12:57.472Z,99466.63
2024-02-19T19:15:24.867Z,99466.81
2024-02-19T19:17:53.301Z,99469.41
2024-02-19T19:20:20.895Z,99471.78
2024-02-19T19:22:48.153Z,99472.31
2024-02-19T19:25:15.394Z,99471.16
2024-02-19T19:27:42.449Z,99461.31
2024-02-19T19:30:10.240Z,99457.81
2024-02-19T19:32:37.278Z,99460.53
2024-02-19T19:35:06.821Z,99471.22
2024-02-19T19:37:34.160Z,99477.09
2024-02-19T19:40:05.263Z,99470.44
2024-02-19T19:42:32.329Z,99473.44
2024-02-19T19:44:59.319Z,99480.91
2024-02-19T19:47:26.398Z,99473.91
2024-02-19T19:49:53.628Z,99474.22
2024-02-19T19:52:23.897Z,99479.47
2024-02-19T19:54:51.087Z,99476.94
2024-02-19T19:57:18.085Z,99486.31
2024-02-19T19:59:49.257Z,99487.91
2024-02-19T20:02:17.238Z,99496.69
2024-02-19T20:04:44.821Z,99482.34
2024-02-19T20:07:12.022Z,99476.44
2024-02-19T20:09:42.562Z,99475.66
2024-02-19T20:12:13.079Z,99474.19
2024-02-19T20:14:40.750Z,99480.56
2024-02-19T20:17:07.842Z,99469.09
2024-02-19T20:19:34.958Z,99468.63
2024-02-19T20:22:02.061Z,99465.09
2024-02-19T20:24:29.064Z,99472.56
2024-02-19T20:27:00.652Z,99466.97
2024-02-19T20:29:27.785Z,99465.03
2024-02-19T20:31:54.821Z,99462.94
2024-02-19T20:34:22.123Z,99466.09
2024-02-19T20:36:49.362Z,99465.94
2024-02-19T20:39:16.501Z,99459.56
2024-02-19T20:41:44.089Z,99464.81
2024-02-19T20:44:12.495Z,99471.16
2024-02-19T20:46:40.455Z,99472.25
2024-02-19T20:49:07.629Z,99471.78
2024-02-19T20:51:34.665Z,99471.25
2024-02-19T20:54:01.703Z,99468.09
2024-02-19T20:56:30.329Z,99468.25
2024-02-19T20:58:57.592Z,99477.75
2024-02-19T21:01:26.460Z,99460.09
2024-02-19T21:03:55.737Z,99462.78
2024-02-19T21:06:22.803Z,99464.84
2024-02-19T21:08:49.987Z,99461.16
2024-02-19T21:11:17.230Z,99469.25
2024-02-19T21:13:44.278Z,99462.22
2024-02-19T21:16:11.518Z,99463.59
2024-02-19T21:18:47.115Z,99457.50
2024-02-19T21:21:18.262Z,99454.25
2024-02-19T21:23:54.810Z,99465.16
2024-02-19T21:26:22.064Z,99460.69
2024-02-19T21:28:50.564Z,99461.00
2024-02-19T21:31:17.975Z,99463.69
2024-02-19T21:33:47.128Z,99458.22
2024-02-19T21:36:14.279Z,99457.88
2024-02-19T21:38:41.634Z,99456.88
2024-02-19T21:41:08.823Z,99459.06
2024-02-19T21:43:35.968Z,99467.91
2024-02-19T21:46:03.329Z,99458.34
2024-02-19T21:48:30.631Z,99463.72
2024-02-19T21:50:59.362Z,99460.53
2024-02-19T21:53:26.356Z,99447.47
2024-02-19T21:55:53.356Z,99447.75
2024-02-19T21:58:20.601Z,99451.69
2024-02-19T22:00:47.789Z,99452.78
2024-02-19T22:03:14.889Z,99453.19
2024-02-19T22:05:41.973Z,99455.38
2024-02-19T22:08:10.996Z,99450.72
2024-02-19T22:10:38.613Z,99453.56
2024-02-19T22:13:05.923Z,99443.97
2024-02-19T22:15:33.027Z,99442.28
2024-02-19T22:18:00.563Z,99447.16
2024-02-19T22:20:27.647Z,99438.72
2024-02-19T22:22:54.690Z,99433.91
2024-02-19T22:25:23.255Z,99440.22
2024-02-19T22:27:53.981Z,99431.97
2024-02-19T22:30:21.197Z,99432.25
2024-02-19T22:32:48.257Z,99429.03
2024-02-19T22:35:15.704Z,99425.19
2024-02-19T22:37:42.829Z,99428.16
2024-02-19T22:40:11.297Z,99432.88
2024-02-19T22:42:39.721Z,99432.75
2024-02-19T22:45:08.058Z,99429.44
2024-02-19T22:47:35.271Z,99428.78
2024-02-19T22:50:05.561Z,99429.88
2024-02-19T22:52:33.206Z,99424.25
2024-02-19T22:55:01.482Z,99422.00
2024-02-19T22:57:28.464Z,99427.50
2024-02-19T22:59:57.253Z,99414.16
2024-02-19T23:02:24.437Z,99423.00
2024-02-19T23:04:51.484Z,99422.31
2024-02-19T23:07:18.743Z,99417.97
2024-02-19T23:09:45.796Z,99416.66
2024-02-19T23:12:12.984Z,99422.78
2024-02-19T23:14:40.144Z,99419.06
2024-02-19T23:17:08.677Z,99416.78
2024-02-19T23:19:35.772Z,99408.69
2024-02-19T23:22:02.899Z,99426.44
2024-02-19T23:24:30.085Z,99413.22
2024-02-19T23:26:57.075Z,99421.09
2024-02-19T23:29:24.142Z,99420.47
2024-02-19T23:31:51.132Z,99430.88
2024-02-19T23:34:20.461Z,99422.44
2024-02-19T23:36:47.607Z,99420.06
2024-02-19T23:39:14.725Z,99418.72
2024-02-19T23:41:41.703Z,99417.16
2024-02-19T23:44:08.741Z,99419.69
2024-02-19T23:46:35.925Z,99415.56
2024-02-19T23:49:03.071Z,99409.00
2024-02-19T23:51:31.507Z,99407.81
2024-02-19T23:53:59.512Z,99413.16
2024-02-19T23:56:26.567Z,99408.22
2024-02-19T23:58:53.614Z,99405.97
